createdAt,value
2022-10-09T00:04:53.566Z,3.97
2022-10-09T00:09:57.011Z,4.00
2022-10-09T00:15:02.006Z,4.63
2022-10-09T00:20:06.027Z,5.33
2022-10-09T00:25:10.045Z,4.37
2022-10-09T00:30:15.320Z,4.20
2022-10-09T00:35:18.757Z,4.40
2022-10-09T00:40:22.175Z,4.27
2022-10-09T00:45:28.082Z,3.67
2022-10-09T00:50:42.770Z,4.33
2022-10-09T00:55:46.850Z,4.83
2022-10-09T01:00:51.980Z,4.47
2022-10-09T01:06:02.687Z,4.50
2022-10-09T01:11:13.208Z,4.33
2022-10-09T01:16:25.508Z,4.70
2022-10-09T01:21:35.424Z,4.57
2022-10-09T01:27:09.973Z,4.67
2022-10-09T01:32:17.685Z,5.23
2022-10-09T01:37:23.565Z,5.60
2022-10-09T01:42:29.977Z,6.40
2022-10-09T01:47:33.378Z,6.40
2022-10-09T01:52:43.649Z,6.60
2022-10-09T01:57:54.338Z,6.20
2022-10-09T02:02:58.909Z,6.47
2022-10-09T02:08:03.198Z,6.93
2022-10-09T02:13:08.980Z,6.73
2022-10-09T02:18:16.187Z,6.67
2022-10-09T02:23:21.191Z,7.23
2022-10-09T02:28:26.139Z,6.57
2022-10-09T02:33:32.654Z,7.03
2022-10-09T02:38:36.191Z,6.90
2022-10-09T02:43:41.090Z,7.07
2022-10-09T02:48:44.862Z,6.80
2022-10-09T02:53:48.547Z,6.83
2022-10-09T02:58:53.655Z,6.83
2022-10-09T03:03:57.158Z,6.87
2022-10-09T03:09:00.576Z,6.47
2022-10-09T03:14:05.512Z,5.93
2022-10-09T03:19:09.110Z,5.83
2022-10-09T03:24:12.692Z,6.03
2022-10-09T03:29:17.564Z,6.00
2022-10-09T03:34:21.017Z,6.13
2022-10-09T03:39:24.385Z,6.00
2022-10-09T03:44:29.225Z,6.33
2022-10-09T03:49:32.736Z,6.10
2022-10-09T03:54:36.192Z,6.17
2022-10-09T03:59:40.982Z,6.73
2022-10-09T04:04:44.387Z,6.50
2022-10-09T04:09:47.891Z,6.50
2022-10-09T04:14:52.745Z,6.73
2022-10-09T04:19:56.207Z,6.40
2022-10-09T04:24:59.681Z,6.23
2022-10-09T04:30:04.917Z,6.10
2022-10-09T04:35:10.458Z,6.43
2022-10-09T04:40:13.922Z,6.00
2022-10-09T04:45:19.272Z,6.93
2022-10-09T04:50:25.174Z,6.23
2022-10-09T04:55:28.874Z,6.60
2022-10-09T05:00:33.845Z,6.53
2022-10-09T05:05:37.834Z,6.27
2022-10-09T05:10:41.341Z,6.20
2022-10-09T05:15:46.263Z,6.50
2022-10-09T05:20:49.750Z,7.53
2022-10-09T05:25:57.002Z,6.57
2022-10-09T05:31:03.592Z,7.10
2022-10-09T05:36:10.078Z,6.80
2022-10-09T05:41:15.171Z,7.23
2022-10-09T05:46:24.914Z,6.90
2022-10-09T05:51:30.044Z,6.90
2022-10-09T05:56:35.330Z,7.20
2022-10-09T06:01:41.714Z,7.23
2022-10-09T06:06:47.850Z,7.50
2022-10-09T06:11:52.422Z,7.13
2022-10-09T06:16:57.357Z,8.00
2022-10-09T06:22:02.138Z,7.43
2022-10-09T06:27:05.834Z,7.70
2022-10-09T06:32:10.995Z,8.07
2022-10-09T06:37:14.527Z,7.83
2022-10-09T06:42:19.138Z,8.00
2022-10-09T06:47:23.959Z,8.00
2022-10-09T06:52:27.537Z,8.97
2022-10-09T06:57:31.305Z,7.63
2022-10-09T07:02:41.768Z,7.43
2022-10-09T07:07:47.554Z,8.10
2022-10-09T07:12:51.281Z,7.77
2022-10-09T07:17:57.256Z,8.23
2022-10-09T07:23:00.929Z,9.10
2022-10-09T07:28:04.518Z,8.90
2022-10-09T07:33:11.191Z,8.57
2022-10-09T07:38:14.950Z,8.50
2022-10-09T07:43:18.615Z,8.67
2022-10-09T07:48:23.695Z,9.23
2022-10-09T07:53:32.605Z,9.60
2022-10-09T07:58:39.822Z,9.13
2022-10-09T08:03:44.793Z,9.30
2022-10-09T08:08:51.902Z,9.23
2022-10-09T08:13:55.914Z,8.73
2022-10-09T08:19:02.358Z,9.10
2022-10-09T08:24:06.146Z,8.53
2022-10-09T08:29:14.127Z,8.57
2022-10-09T08:34:19.729Z,8.53
2022-10-09T08:39:23.651Z,9.57
2022-10-09T08:44:29.326Z,7.20
2022-10-09T08:49:44.967Z,7.83
2022-10-09T08:54:48.498Z,8.63
2022-10-09T08:59:52.609Z,9.03
2022-10-09T09:05:20.516Z,7.90
2022-10-09T09:10:33.282Z,7.33
2022-10-09T09:15:47.750Z,8.50
2022-10-09T09:20:55.942Z,7.77
2022-10-09T09:25:59.923Z,7.40
2022-10-09T09:31:08.314Z,6.93
2022-10-09T09:36:22.214Z,6.93
2022-10-09T09:41:25.888Z,6.17
2022-10-09T09:46:32.029Z,6.60
2022-10-09T09:51:37.832Z,5.50
2022-10-09T10:02:14.890Z,5.77
2022-10-09T10:07:30.895Z,5.03
2022-10-09T10:12:34.465Z,4.30
2022-10-09T10:17:38.979Z,4.80
2022-10-09T10:22:48.084Z,5.40
2022-10-09T10:27:57.393Z,5.23
2022-10-09T10:33:05.285Z,5.47
2022-10-09T10:38:19.863Z,5.50
2022-10-09T10:43:34.713Z,5.07
2022-10-09T10:48:41.492Z,5.77
2022-10-09T10:54:01.097Z,4.83
2022-10-09T10:59:23.691Z,4.73
2022-10-09T11:04:48.159Z,4.93
2022-10-09T11:10:01.720Z,6.27
2022-10-09T11:15:17.853Z,4.97
2022-10-09T11:20:55.721Z,4.97
2022-10-09T11:26:12.341Z,4.30
2022-10-09T11:31:18.142Z,5.37
2022-10-09T11:36:26.160Z,5.90
2022-10-09T11:41:32.546Z,5.03
2022-10-09T11:46:46.276Z,5.93
2022-10-09T11:51:57.447Z,6.03
2022-10-09T11:57:06.374Z,6.30
2022-10-09T12:02:27.188Z,6.87
2022-10-09T12:07:35.073Z,6.07
2022-10-09T12:12:40.226Z,6.60
2022-10-09T12:17:50.129Z,7.20
2022-10-09T12:23:21.804Z,5.83
2022-10-09T12:28:29.520Z,6.43
2022-10-09T12:33:39.503Z,6.27
2022-10-09T12:38:43.458Z,5.70
2022-10-09T12:43:49.481Z,6.30
2022-10-09T12:48:53.048Z,5.93
2022-10-09T12:53:57.225Z,6.17
2022-10-09T12:59:04.599Z,5.50
2022-10-09T13:04:10.095Z,5.60
2022-10-09T13:09:23.277Z,5.10
2022-10-09T13:14:35.090Z,4.87
2022-10-09T13:19:38.579Z,4.70
2022-10-09T13:24:44.927Z,4.67
2022-10-09T13:29:50.163Z,4.03
2022-10-09T13:34:55.396Z,4.30
2022-10-09T13:40:00.350Z,4.07
2022-10-09T13:45:05.573Z,4.73
2022-10-09T13:50:09.672Z,5.00
2022-10-09T13:55:14.737Z,5.07
2022-10-09T14:00:19.845Z,4.60
2022-10-09T14:05:23.886Z,5.30
2022-10-09T14:10:27.358Z,5.30
2022-10-09T14:15:32.228Z,6.13
2022-10-09T14:20:36.052Z,5.30
2022-10-09T14:25:39.449Z,4.60
2022-10-09T14:30:45.441Z,5.40
2022-10-09T14:35:48.878Z,4.70
2022-10-09T14:40:52.371Z,5.43
2022-10-09T14:46:05.853Z,7.33
2022-10-09T14:51:12.426Z,5.17
2022-10-09T14:56:17.818Z,4.20
2022-10-09T15:01:23.849Z,4.80
2022-10-09T15:06:28.251Z,4.90
2022-10-09T15:11:31.740Z,4.17
2022-10-09T15:16:37.224Z,3.70
2022-10-09T15:21:40.692Z,3.93
2022-10-09T15:26:44.084Z,3.30
2022-10-09T15:31:51.187Z,3.37
2022-10-09T15:36:54.604Z,3.63
2022-10-09T15:41:58.088Z,3.60
2022-10-09T15:47:03.177Z,3.50
2022-10-09T15:52:06.646Z,3.27
2022-10-09T15:57:10.193Z,3.53
2022-10-09T16:02:15.099Z,3.57
2022-10-09T16:07:18.483Z,3.57
2022-10-09T16:12:21.902Z,3.87
2022-10-09T16:17:26.761Z,3.93
2022-10-09T16:22:30.191Z,4.60
2022-10-09T16:27:33.783Z,4.23
2022-10-09T16:32:38.733Z,4.00
2022-10-09T16:37:42.217Z,3.20
2022-10-09T16:42:45.660Z,3.40
2022-10-09T16:47:50.887Z,4.43
2022-10-09T16:52:54.604Z,4.20
2022-10-09T16:57:58.085Z,4.07
2022-10-09T17:03:03.587Z,3.43
2022-10-09T17:08:07.355Z,3.90
2022-10-09T17:13:11.091Z,4.20
2022-10-09T17:18:18.831Z,3.40
2022-10-09T17:23:22.733Z,3.90
2022-10-09T17:28:30.128Z,4.17
2022-10-09T17:33:39.441Z,3.50
2022-10-09T17:38:43.590Z,3.60
2022-10-09T17:43:48.832Z,3.40
2022-10-09T17:48:54.324Z,3.77
2022-10-09T17:54:02.757Z,3.20
2022-10-09T17:59:07.916Z,3.90
2022-10-09T18:04:16.678Z,3.93
2022-10-09T18:09:21.279Z,4.30
2022-10-09T18:14:25.866Z,3.93
2022-10-09T18:19:34.236Z,5.60
2022-10-09T18:24:38.179Z,6.00
2022-10-09T18:29:42.563Z,5.50
2022-10-09T18:34:48.453Z,5.10
2022-10-09T18:39:52.678Z,4.20
2022-10-09T18:44:57.196Z,5.83
2022-10-09T18:50:11.414Z,4.47
2022-10-09T18:55:19.710Z,4.07
2022-10-09T19:00:24.074Z,3.40
2022-10-09T19:05:29.991Z,3.70
2022-10-09T19:10:33.978Z,3.80
2022-10-09T19:15:37.545Z,4.03
2022-10-09T19:20:42.737Z,4.90
2022-10-09T19:25:50.425Z,13.47
2022-10-09T19:30:54.770Z,23.80
2022-10-09T19:35:59.986Z,9.57
2022-10-09T19:41:07.708Z,7.70
2022-10-09T19:46:14.291Z,8.03
2022-10-09T19:51:21.896Z,7.53
2022-10-09T19:56:28.662Z,6.67
2022-10-09T20:01:35.573Z,5.97
2022-10-09T20:06:42.393Z,7.13
2022-10-09T20:11:46.227Z,6.33
2022-10-09T20:16:49.759Z,5.80
2022-10-09T20:21:54.662Z,6.63
2022-10-09T20:26:58.181Z,7.33
2022-10-09T20:32:01.787Z,7.47
2022-10-09T20:37:06.949Z,6.93
2022-10-09T20:42:10.892Z,6.80
2022-10-09T20:47:14.440Z,7.50
2022-10-09T20:52:19.376Z,8.03
2022-10-09T20:57:22.890Z,7.80
2022-10-09T21:02:26.307Z,8.17
2022-10-09T21:07:32.709Z,7.90
2022-10-09T21:12:36.185Z,7.87
2022-10-09T21:17:41.203Z,7.47
2022-10-09T21:22:46.229Z,6.83
2022-10-09T21:27:49.755Z,6.83
2022-10-09T21:32:53.268Z,6.80
2022-10-09T21:37:58.299Z,7.30
2022-10-09T21:43:01.670Z,7.50
2022-10-09T21:48:05.265Z,7.60
2022-10-09T21:53:10.229Z,9.03
2022-10-09T21:58:13.673Z,8.87
2022-10-09T22:03:17.248Z,7.53
2022-10-09T22:08:22.589Z,6.53
2022-10-09T22:13:26.108Z,7.80
2022-10-09T22:18:29.539Z,6.87
2022-10-09T22:23:34.842Z,6.70
2022-10-09T22:28:38.307Z,5.77
2022-10-09T22:33:42.080Z,7.07
2022-10-09T22:38:46.937Z,7.10
2022-10-09T22:43:51.890Z,6.87
2022-10-09T22:48:55.478Z,6.63
2022-10-09T22:54:01.089Z,7.43
2022-10-09T22:59:05.611Z,6.50
2022-10-09T23:04:11.583Z,6.67
2022-10-09T23:09:16.838Z,6.57
2022-10-09T23:14:20.588Z,6.40
2022-10-09T23:19:23.982Z,6.40
2022-10-09T23:24:28.852Z,6.10
2022-10-09T23:29:32.245Z,6.57
2022-10-09T23:34:35.656Z,6.30
2022-10-09T23:39:40.498Z,5.93
2022-10-09T23:44:43.959Z,5.70
2022-10-09T23:49:47.335Z,5.90
2022-10-09T23:54:52.203Z,4.77
2022-10-09T23:59:55.645Z,5.27
